Time;durP1;ratioP1;P1;durP2;ratioP2;P2;SDS_P1;SDS_P2;PMS_P1;PMS_P2;Temp;Humidity;BMP_temperature;BMP_pressure;BME280_temperature;BME280_humidity;BME280_pressure;Samples;Min_cycle;Max_cycle;Signal;HPM_P1;HPM_P2
2023/05/16 00:01:09;;;;;;;3.10;1.10;;;14.80;91.70;;;;;;6220085;23;20091;-78
2023/05/16 00:03:36;;;;;;;3.13;1.10;;;14.70;91.70;;;;;;6246919;23;20016;-78
2023/05/16 00:06:02;;;;;;;1.42;0.90;;;14.70;91.80;;;;;;6247099;23;20039;-78
2023/05/16 00:08:28;;;;;;;1.35;0.90;;;14.70;91.90;;;;;;6247009;23;20016;-79
2023/05/16 00:10:54;;;;;;;2.70;1.23;;;14.60;91.90;;;;;;6247303;23;20000;-79
2023/05/16 00:13:23;;;;;;;4.80;1.30;;;14.60;92.00;;;;;;6246978;23;20004;-79
2023/05/16 00:15:53;;;;;;;3.92;1.10;;;14.60;92.20;;;;;;6246717;23;20051;-79
2023/05/16 00:18:20;;;;;;;2.75;1.17;;;14.60;92.40;;;;;;6246660;23;20448;-78
2023/05/16 00:20:51;;;;;;;4.60;1.30;;;14.70;92.20;;;;;;6246559;23;20011;-78
2023/05/16 00:23:17;;;;;;;4.75;1.20;;;14.70;92.20;;;;;;6246530;23;20000;-77
2023/05/16 00:25:42;;;;;;;3.10;1.20;;;14.70;92.20;;;;;;6246464;23;20078;-80
2023/05/16 00:28:08;;;;;;;1.98;1.10;;;14.70;92.10;;;;;;6246324;23;20015;-80
2023/05/16 00:30:34;;;;;;;2.88;1.17;;;14.70;92.20;;;;;;6220003;23;20043;-79
2023/05/16 00:33:01;;;;;;;2.55;1.10;;;14.70;92.30;;;;;;6246356;23;19996;-77
2023/05/16 00:35:26;;;;;;;1.80;1.00;;;14.70;92.20;;;;;;6246559;23;20058;-77
2023/05/16 00:37:52;;;;;;;1.92;0.88;;;14.70;92.30;;;;;;6246080;23;20012;-79
2023/05/16 00:40:18;;;;;;;1.92;0.90;;;14.60;92.30;;;;;;6246521;23;20011;-79
2023/05/16 00:42:43;;;;;;;3.90;1.10;;;14.60;92.20;;;;;;6248132;23;20000;-79
2023/05/16 00:45:10;;;;;;;1.52;0.90;;;14.60;92.30;;;;;;6248952;23;20042;-79
2023/05/16 00:47:36;;;;;;;2.05;1.02;;;14.50;92.30;;;;;;6248575;23;20397;-78
2023/05/16 00:50:02;;;;;;;2.78;0.93;;;14.60;92.30;;;;;;6268245;22;19992;-76
2023/05/16 00:52:29;;;;;;;2.45;0.90;;;14.60;92.20;;;;;;6247630;23;20012;-78
2023/05/16 00:54:56;;;;;;;2.17;0.93;;;14.60;92.40;;;;;;6269965;23;20016;-78
2023/05/16 00:57:22;;;;;;;1.50;0.90;;;14.60;92.30;;;;;;6247390;23;20486;-77
2023/05/16 00:59:48;;;;;;;1.27;1.00;;;14.60;92.40;;;;;;6247686;23;20023;-78
2023/05/16 01:02:14;;;;;;;2.30;1.00;;;14.60;92.30;;;;;;6246625;23;20337;-78
2023/05/16 01:04:41;;;;;;;2.53;0.80;;;14.60;92.30;;;;;;6246122;23;20063;-79
2023/05/16 01:07:07;;;;;;;2.95;1.10;;;14.60;92.30;;;;;;6246171;23;20425;-79
2023/05/16 01:09:33;;;;;;;3.15;0.80;;;14.60;92.40;;;;;;6219454;23;20032;-79
2023/05/16 01:12:11;;;;;;;4.53;1.05;;;14.60;92.30;;;;;;6219530;23;20386;-78
2023/05/16 01:14:51;;;;;;;2.67;1.27;;;14.60;92.20;;;;;;6246245;23;20028;-79
2023/05/16 01:17:28;;;;;;;1.27;0.70;;;14.70;92.40;;;;;;6245927;23;19996;-78
2023/05/16 01:20:03;;;;;;;2.08;0.90;;;14.60;92.40;;;;;;6246070;23;19996;-78
2023/05/16 01:22:44;;;;;;;4.10;0.98;;;14.70;92.30;;;;;;6246202;23;20075;-78
2023/05/16 01:25:19;;;;;;;1.33;0.70;;;14.70;92.20;;;;;;6246454;23;20007;-78
2023/05/16 01:27:45;;;;;;;3.70;1.23;;;14.70;92.20;;;;;;6245986;23;20028;-77
2023/05/16 01:30:16;;;;;;;1.55;0.70;;;14.70;92.50;;;;;;6246184;23;20081;-77
2023/05/16 01:32:42;;;;;;;2.15;0.80;;;14.70;92.70;;;;;;6245881;23;19996;-78
2023/05/16 01:35:12;;;;;;;1.25;0.70;;;14.70;92.40;;;;;;6245812;23;20004;-77
2023/05/16 01:37:48;;;;;;;2.53;0.80;;;14.70;92.50;;;;;;6245970;23;19996;-78
2023/05/16 01:40:52;;;;;;;2.33;0.90;;;14.70;92.60;;;;;;6245989;23;20004;-78
2023/05/16 01:43:24;;;;;;;4.15;1.50;;;14.80;92.50;;;;;;6212828;23;20042;-78
2023/05/16 01:45:55;;;;;;;2.60;0.73;;;14.70;92.60;;;;;;6246072;23;20003;-79
2023/05/16 01:48:26;;;;;;;3.72;0.93;;;14.70;92.60;;;;;;6245660;23;20387;-78
2023/05/16 01:50:55;;;;;;;6.32;1.15;;;14.60;92.70;;;;;;6218838;23;20465;-78
2023/05/16 01:53:37;;;;;;;3.03;0.80;;;14.60;92.70;;;;;;6246020;23;20012;-78
2023/05/16 01:56:04;;;;;;;2.80;0.93;;;14.60;92.90;;;;;;6245545;23;20322;-79
2023/05/16 01:58:35;;;;;;;1.88;0.65;;;14.60;92.90;;;;;;6245583;23;20075;-79
2023/05/16 02:01:05;;;;;;;1.52;0.70;;;14.60;93.00;;;;;;6245751;23;20067;-78
2023/05/16 02:03:31;;;;;;;0.85;0.70;;;14.60;92.90;;;;;;6245359;23;20016;-78
2023/05/16 02:05:57;;;;;;;2.25;0.80;;;14.50;93.00;;;;;;6245595;23;20004;-79
2023/05/16 02:08:25;;;;;;;1.80;0.70;;;14.50;93.00;;;;;;6245602;23;20015;-78
2023/05/16 02:10:51;;;;;;;5.65;0.88;;;14.50;93.30;;;;;;6245448;23;20418;-78
2023/05/16 02:13:17;;;;;;;1.30;0.80;;;14.60;93.30;;;;;;6245621;23;20007;-79
2023/05/16 02:15:43;;;;;;;2.15;1.00;;;14.60;93.20;;;;;;6246076;23;20004;-78
2023/05/16 02:18:08;;;;;;;3.80;0.93;;;14.60;93.40;;;;;;6245561;23;20111;-79
2023/05/16 02:20:34;;;;;;;1.85;0.80;;;14.50;93.30;;;;;;6245600;23;19996;-77
2023/05/16 02:23:02;;;;;;;2.88;0.80;;;14.60;93.50;;;;;;6245620;23;20004;-79
2023/05/16 02:25:28;;;;;;;3.10;0.90;;;14.50;93.30;;;;;;6245820;23;19996;-78
2023/05/16 02:27:53;;;;;;;2.30;1.10;;;14.50;93.40;;;;;;6245557;23;20015;-78
2023/05/16 02:30:19;;;;;;;3.60;0.75;;;14.60;93.50;;;;;;6245574;23;20330;-78
2023/05/16 02:32:45;;;;;;;1.73;1.00;;;14.60;93.70;;;;;;6245518;23;20465;-78
2023/05/16 02:35:11;;;;;;;2.17;0.80;;;14.50;93.70;;;;;;6245540;23;20032;-80
2023/05/16 02:37:37;;;;;;;4.60;1.10;;;14.50;93.50;;;;;;6245456;23;20103;-76
2023/05/16 02:40:06;;;;;;;1.88;1.00;;;14.50;93.70;;;;;;6218452;23;20015;-79
2023/05/16 02:42:32;;;;;;;2.38;1.05;;;14.50;93.90;;;;;;6245337;23;20421;-77
2023/05/16 02:44:58;;;;;;;2.92;1.00;;;14.50;93.70;;;;;;6245412;23;20016;-77
2023/05/16 02:47:24;;;;;;;2.33;1.10;;;14.50;93.70;;;;;;6245592;23;20079;-78
2023/05/16 02:49:51;;;;;;;3.08;0.88;;;14.50;93.80;;;;;;6245162;23;20012;-78
2023/05/16 02:52:20;;;;;;;2.85;0.85;;;14.50;93.80;;;;;;6245119;23;20004;-78
2023/05/16 02:54:46;;;;;;;2.60;1.00;;;14.50;93.80;;;;;;6245237;23;20000;-79
2023/05/16 02:57:12;;;;;;;6.72;0.90;;;14.50;93.90;;;;;;6245285;23;20000;-78
2023/05/16 02:59:38;;;;;;;3.75;1.00;;;14.50;93.90;;;;;;6245113;23;20004;-78
2023/05/16 03:02:03;;;;;;;1.65;1.10;;;14.50;93.90;;;;;;6244772;23;20011;-78
2023/05/16 03:04:29;;;;;;;3.50;1.15;;;14.50;93.80;;;;;;6245245;23;20001;-77
2023/05/16 03:06:55;;;;;;;3.20;0.85;;;14.50;93.90;;;;;;6218472;23;20012;-79
2023/05/16 03:09:21;;;;;;;4.07;0.93;;;14.60;93.90;;;;;;6244889;23;20015;-78
2023/05/16 03:11:47;;;;;;;1.38;0.75;;;14.50;93.80;;;;;;6244975;23;20067;-78
2023/05/16 03:14:13;;;;;;;2.28;0.90;;;14.50;93.90;;;;;;6245114;23;20030;-78
2023/05/16 03:16:40;;;;;;;2.58;1.10;;;14.60;93.90;;;;;;6245332;23;20340;-78
2023/05/16 03:19:06;;;;;;;4.80;1.05;;;14.60;93.90;;;;;;6245116;23;20011;-78
2023/05/16 03:21:31;;;;;;;2.42;1.00;;;14.60;93.90;;;;;;6245149;23;19997;-78
2023/05/16 03:23:57;;;;;;;2.03;0.98;;;14.60;93.90;;;;;;6244912;23;20010;-77
2023/05/16 03:26:24;;;;;;;2.30;1.00;;;14.70;93.90;;;;;;6245033;23;20003;-77
2023/05/16 03:28:50;;;;;;;5.07;1.40;;;14.70;93.90;;;;;;6244924;23;20012;-78
2023/05/16 03:31:16;;;;;;;1.55;0.75;;;14.60;93.90;;;;;;6245099;23;20000;-78
2023/05/16 03:33:42;;;;;;;2.20;1.20;;;14.60;93.90;;;;;;6245077;23;20039;-73
2023/05/16 03:36:09;;;;;;;2.28;0.70;;;14.60;93.90;;;;;;6244881;23;20073;-78
2023/05/16 03:38:35;;;;;;;2.25;1.00;;;14.60;93.90;;;;;;6217880;23;20039;-78
2023/05/16 03:41:01;;;;;;;4.20;1.20;;;14.70;94.00;;;;;;6244853;23;20007;-78
2023/05/16 03:43:27;;;;;;;3.17;0.90;;;14.70;94.10;;;;;;6244887;23;20346;-78
2023/05/16 03:45:53;;;;;;;3.53;1.00;;;14.70;93.90;;;;;;6245884;23;20008;-77
2023/05/16 03:48:18;;;;;;;1.60;0.80;;;14.60;93.90;;;;;;6217746;23;20027;-78
2023/05/16 03:50:44;;;;;;;2.97;1.10;;;14.60;93.90;;;;;;6244900;23;19997;-79
2023/05/16 03:53:10;;;;;;;4.88;1.45;;;14.60;94.00;;;;;;6245341;23;20028;-78
2023/05/16 03:55:36;;;;;;;2.50;0.90;;;14.60;93.90;;;;;;6244902;23;20418;-78
2023/05/16 03:58:02;;;;;;;2.78;1.20;;;14.60;94.00;;;;;;6255906;23;20016;-78
2023/05/16 04:00:28;;;;;;;3.28;1.23;;;14.50;93.90;;;;;;6269118;23;19992;-78
2023/05/16 04:02:53;;;;;;;6.95;1.10;;;14.60;94.10;;;;;;6228899;23;20016;-77
2023/05/16 04:05:19;;;;;;;5.43;0.90;;;14.50;94.10;;;;;;6245439;23;20012;-78
2023/05/16 04:07:45;;;;;;;1.52;0.90;;;14.50;94.10;;;;;;6244798;23;20004;-78
2023/05/16 04:10:11;;;;;;;2.63;0.85;;;14.50;94.10;;;;;;6244950;23;20000;-78
2023/05/16 04:12:37;;;;;;;2.72;1.00;;;14.60;94.10;;;;;;6245697;23;20007;-78
2023/05/16 04:15:04;;;;;;;3.92;1.08;;;14.60;94.00;;;;;;6219815;23;20047;-79
2023/05/16 04:17:30;;;;;;;3.70;0.90;;;14.60;94.00;;;;;;6219642;23;20054;-79
2023/05/16 04:19:56;;;;;;;3.50;1.00;;;14.60;94.00;;;;;;6246645;23;20027;-79
2023/05/16 04:22:22;;;;;;;5.10;1.00;;;14.70;94.10;;;;;;6246574;23;20055;-77
2023/05/16 04:24:48;;;;;;;2.60;1.08;;;14.70;94.00;;;;;;6247706;23;20393;-78
2023/05/16 04:27:13;;;;;;;4.32;0.90;;;14.70;94.20;;;;;;6246546;23;20004;-78
2023/05/16 04:29:39;;;;;;;4.32;1.42;;;14.70;94.10;;;;;;6246079;23;20066;-78
2023/05/16 04:32:06;;;;;;;4.72;1.10;;;14.70;94.00;;;;;;6246415;23;20061;-78
2023/05/16 04:34:33;;;;;;;4.30;1.00;;;14.70;94.10;;;;;;6246297;23;20000;-77
2023/05/16 04:36:59;;;;;;;2.50;1.60;;;14.60;94.00;;;;;;6246242;23;20032;-77
2023/05/16 04:39:24;;;;;;;2.70;1.05;;;14.60;93.90;;;;;;6246014;23;19996;-79
2023/05/16 04:41:51;;;;;;;5.10;1.00;;;14.70;94.10;;;;;;6246151;23;20011;-78
2023/05/16 04:44:16;;;;;;;2.80;1.15;;;14.70;94.10;;;;;;6246176;23;20430;-78
2023/05/16 04:46:42;;;;;;;4.50;1.00;;;14.70;94.10;;;;;;6246454;23;20138;-78
2023/05/16 04:49:10;;;;;;;2.78;1.27;;;14.70;94.00;;;;;;6219069;23;20034;-77
2023/05/16 04:51:35;;;;;;;5.55;1.42;;;14.70;94.10;;;;;;6246464;23;20008;-77
2023/05/16 04:54:01;;;;;;;2.30;1.05;;;14.70;94.10;;;;;;6245803;23;20365;-78
2023/05/16 04:56:27;;;;;;;5.85;1.20;;;14.70;93.90;;;;;;6245935;23;19996;-78
2023/05/16 04:58:53;;;;;;;4.55;0.90;;;14.80;93.90;;;;;;6246078;23;20310;-78
2023/05/16 05:01:19;;;;;;;4.00;1.40;;;14.70;93.90;;;;;;6245952;23;20003;-77
2023/05/16 05:03:45;;;;;;;2.80;1.30;;;14.70;94.00;;;;;;6246026;23;20020;-79
2023/05/16 05:06:10;;;;;;;3.83;1.40;;;14.60;94.10;;;;;;6245611;23;20023;-78
2023/05/16 05:08:36;;;;;;;2.60;1.10;;;14.70;94.30;;;;;;6245827;23;20015;-79
2023/05/16 05:11:02;;;;;;;3.08;1.13;;;14.70;94.40;;;;;;6245755;23;20007;-77
2023/05/16 05:13:27;;;;;;;2.25;1.00;;;14.70;94.30;;;;;;6245851;23;20042;-79
2023/05/16 05:15:53;;;;;;;2.83;1.20;;;14.80;94.20;;;;;;6245619;23;20027;-77
2023/05/16 05:18:18;;;;;;;2.92;1.20;;;14.80;94.30;;;;;;6246043;23;20007;-80
2023/05/16 05:20:44;;;;;;;3.00;1.13;;;14.80;94.20;;;;;;6245911;23;20420;-78
2023/05/16 05:23:10;;;;;;;3.05;1.00;;;14.80;94.20;;;;;;6218525;23;20019;-78
2023/05/16 05:25:37;;;;;;;3.38;1.40;;;14.80;94.20;;;;;;6218294;23;20004;-79
2023/05/16 05:28:02;;;;;;;3.92;1.30;;;14.80;94.20;;;;;;6245750;23;20008;-78
2023/05/16 05:30:28;;;;;;;3.38;1.00;;;14.80;94.20;;;;;;6218719;23;20070;-78
2023/05/16 05:32:54;;;;;;;4.20;1.05;;;14.80;94.20;;;;;;6245365;23;20004;-78
2023/05/16 05:35:20;;;;;;;3.15;1.27;;;14.80;94.20;;;;;;6245135;23;20210;-78
2023/05/16 05:37:46;;;;;;;1.75;1.10;;;14.80;94.30;;;;;;6245687;23;19996;-80
2023/05/16 05:40:11;;;;;;;2.03;1.10;;;14.80;94.40;;;;;;6246233;23;20000;-78
2023/05/16 05:42:37;;;;;;;2.75;1.02;;;14.80;94.30;;;;;;6245789;23;20014;-80
2023/05/16 05:45:03;;;;;;;3.10;1.20;;;14.90;94.30;;;;;;6246059;23;20071;-82
2023/05/16 05:47:29;;;;;;;2.63;1.10;;;14.90;94.30;;;;;;6245593;23;19996;-86
2023/05/16 05:49:55;;;;;;;2.95;1.20;;;15.00;94.30;;;;;;6245543;23;20058;-82
2023/05/16 05:52:21;;;;;;;3.25;1.10;;;15.10;94.20;;;;;;6246161;23;19996;-80
2023/05/16 05:54:47;;;;;;;7.90;1.60;;;15.20;94.10;;;;;;6245542;23;20031;-81
2023/05/16 05:57:13;;;;;;;6.15;1.50;;;15.20;93.90;;;;;;6245654;23;19996;-79
2023/05/16 05:59:38;;;;;;;2.08;1.02;;;15.30;94.00;;;;;;6245413;23;20050;-80
2023/05/16 06:02:05;;;;;;;4.72;1.33;;;15.30;94.00;;;;;;6245283;23;20004;-80
2023/05/16 06:04:30;;;;;;;4.53;1.40;;;15.30;93.90;;;;;;6245742;23;20057;-80
2023/05/16 06:06:56;;;;;;;2.85;1.30;;;15.40;93.90;;;;;;6245618;23;20432;-81
2023/05/16 06:09:22;;;;;;;2.65;1.15;;;15.30;93.90;;;;;;6245783;23;20012;-81
2023/05/16 06:11:49;;;;;;;4.18;1.80;;;15.40;93.80;;;;;;6245538;23;20004;-81
2023/05/16 06:14:15;;;;;;;5.05;1.40;;;15.40;93.80;;;;;;6246567;23;20074;-80
2023/05/16 06:16:41;;;;;;;4.70;1.27;;;15.40;93.60;;;;;;6249513;23;20385;-81
2023/05/16 06:19:07;;;;;;;8.68;1.55;;;15.40;93.70;;;;;;6246280;23;20000;-80
2023/05/16 06:21:33;;;;;;;4.15;1.13;;;15.40;93.70;;;;;;6246121;23;20008;-81
2023/05/16 06:23:58;;;;;;;3.72;1.23;;;15.40;93.70;;;;;;6218387;23;20338;-80
2023/05/16 06:26:24;;;;;;;4.28;1.30;;;15.50;93.70;;;;;;6245490;23;20002;-80
2023/05/16 06:28:50;;;;;;;2.47;1.20;;;15.60;93.60;;;;;;6245673;23;20016;-81
2023/05/16 06:31:16;;;;;;;4.60;1.20;;;15.70;93.40;;;;;;6246207;23;20022;-81
2023/05/16 06:33:41;;;;;;;3.75;1.30;;;15.80;93.30;;;;;;6246241;23;20000;-80
2023/05/16 06:36:07;;;;;;;5.65;1.50;;;15.80;93.20;;;;;;6245528;23;20090;-80
2023/05/16 06:38:33;;;;;;;4.70;1.38;;;15.80;93.00;;;;;;6246115;23;20000;-81
2023/05/16 06:40:58;;;;;;;5.18;1.45;;;15.90;93.10;;;;;;6219314;23;20004;-82
2023/05/16 06:43:24;;;;;;;3.40;1.25;;;15.90;93.10;;;;;;6246068;23;20004;-81
2023/05/16 06:45:50;;;;;;;4.03;1.10;;;15.80;93.00;;;;;;6246058;23;20004;-82
2023/05/16 06:48:17;;;;;;;4.80;1.10;;;15.80;93.00;;;;;;6245418;23;20008;-81
2023/05/16 06:50:52;;;;;;;6.15;1.30;;;15.80;93.00;;;;;;6246256;23;20054;-82
2023/05/16 06:53:18;;;;;;;4.53;1.33;;;15.70;92.80;;;;;;6246292;23;20528;-81
2023/05/16 06:55:44;;;;;;;6.65;1.55;;;15.80;92.90;;;;;;6245388;23;19996;-79
2023/05/16 06:58:11;;;;;;;5.63;1.30;;;15.90;92.90;;;;;;6245872;23;20337;-81
2023/05/16 07:00:36;;;;;;;5.40;1.20;;;16.00;92.80;;;;;;6251626;23;19996;-79
2023/05/16 07:03:05;;;;;;;3.90;1.10;;;16.10;92.70;;;;;;6248968;23;20484;-79
2023/05/16 07:05:31;;;;;;;2.90;1.15;;;16.00;92.50;;;;;;6248274;23;20075;-79
2023/05/16 07:07:56;;;;;;;5.85;1.40;;;16.10;92.70;;;;;;6242316;22;20003;-79
2023/05/16 07:10:22;;;;;;;3.35;1.38;;;16.10;92.70;;;;;;6270729;23;20024;-79
2023/05/16 07:12:48;;;;;;;7.45;2.00;;;16.20;92.70;;;;;;6247554;23;20002;-79
2023/05/16 07:15:14;;;;;;;6.65;1.55;;;16.20;92.60;;;;;;6245561;23;20059;-79
2023/05/16 07:17:40;;;;;;;29.02;2.70;;;16.30;92.60;;;;;;6244783;23;19996;-81
2023/05/16 07:20:07;;;;;;;7.40;1.40;;;16.30;92.60;;;;;;6245166;23;20007;-80
2023/05/16 07:22:32;;;;;;;4.13;1.30;;;16.30;92.40;;;;;;6245432;23;20026;-80
2023/05/16 07:24:59;;;;;;;5.47;1.67;;;16.30;92.40;;;;;;6247103;23;20462;-80
2023/05/16 07:27:26;;;;;;;4.82;1.40;;;16.30;92.40;;;;;;6245903;23;20342;-81
2023/05/16 07:29:52;;;;;;;3.90;1.35;;;16.30;92.50;;;;;;6245282;23;20027;-79
2023/05/16 07:32:18;;;;;;;5.60;1.75;;;16.20;92.40;;;;;;6244902;23;20081;-79
2023/05/16 07:34:44;;;;;;;4.10;1.27;;;16.30;92.50;;;;;;6244987;23;20000;-79
2023/05/16 07:37:11;;;;;;;4.88;1.75;;;16.20;92.30;;;;;;6245064;23;20066;-80
2023/05/16 07:39:40;;;;;;;5.05;1.70;;;16.10;92.30;;;;;;6245401;23;20526;-79
2023/05/16 07:42:07;;;;;;;5.10;2.00;;;16.00;92.30;;;;;;6245029;23;20000;-81
2023/05/16 07:44:33;;;;;;;6.85;1.55;;;16.10;92.40;;;;;;6246197;23;19996;-80
2023/05/16 07:46:59;;;;;;;4.18;1.65;;;16.10;92.30;;;;;;6245683;23;20066;-81
2023/05/16 07:49:24;;;;;;;3.47;1.80;;;16.20;92.30;;;;;;6247385;23;20121;-80
2023/05/16 07:51:50;;;;;;;4.13;1.52;;;16.30;92.20;;;;;;6220076;23;20091;-80
2023/05/16 07:54:16;;;;;;;8.35;2.10;;;16.40;92.10;;;;;;6247180;23;20010;-80
2023/05/16 07:56:42;;;;;;;3.55;1.58;;;16.50;92.10;;;;;;6219945;23;20000;-80
2023/05/16 07:59:08;;;;;;;4.82;1.50;;;16.50;91.70;;;;;;6246999;23;20054;-79
2023/05/16 08:01:34;;;;;;;3.60;1.33;;;16.60;91.70;;;;;;6246644;23;20063;-80
2023/05/16 08:04:00;;;;;;;6.40;1.92;;;16.70;91.50;;;;;;6246839;23;20095;-80
2023/05/16 08:06:25;;;;;;;4.00;1.27;;;16.80;91.50;;;;;;6246917;23;19996;-80
2023/05/16 08:08:51;;;;;;;4.85;1.60;;;16.90;91.30;;;;;;6246602;23;20043;-80
2023/05/16 08:11:21;;;;;;;7.60;1.67;;;17.10;91.10;;;;;;6246899;23;20000;-80
2023/05/16 08:13:48;;;;;;;6.07;1.50;;;17.20;90.90;;;;;;6219949;23;20319;-80
2023/05/16 08:16:13;;;;;;;4.72;1.70;;;17.20;90.80;;;;;;6246953;23;20027;-80
2023/05/16 08:18:39;;;;;;;5.32;2.10;;;17.30;90.60;;;;;;6246735;23;20418;-79
2023/05/16 08:21:05;;;;;;;5.70;1.75;;;17.30;90.60;;;;;;6247018;23;20337;-81
2023/05/16 08:23:31;;;;;;;5.38;1.80;;;17.20;90.40;;;;;;6247764;23;20000;-80
2023/05/16 08:25:57;;;;;;;9.10;2.00;;;17.10;90.50;;;;;;6220744;23;20334;-80
2023/05/16 08:28:23;;;;;;;3.50;1.80;;;17.00;90.70;;;;;;6248414;23;20008;-80
2023/05/16 08:30:49;;;;;;;7.95;2.20;;;17.00;90.80;;;;;;6249634;23;20056;-78
2023/05/16 08:33:14;;;;;;;4.85;1.55;;;17.00;90.80;;;;;;6247299;23;20008;-80
2023/05/16 08:35:43;;;;;;;10.15;2.17;;;17.10;90.80;;;;;;6247360;23;20061;-81
2023/05/16 08:38:09;;;;;;;4.07;1.30;;;17.20;90.70;;;;;;6247408;23;20000;-80
2023/05/16 08:40:35;;;;;;;3.40;1.10;;;17.20;90.30;;;;;;6247450;23;20010;-81
2023/05/16 08:43:01;;;;;;;2.22;1.10;;;17.20;90.20;;;;;;6247104;23;20034;-80
2023/05/16 08:45:28;;;;;;;3.65;1.30;;;17.20;90.30;;;;;;6246960;23;20034;-81
2023/05/16 08:47:57;;;;;;;3.33;1.30;;;17.30;90.10;;;;;;6247417;23;19997;-81
2023/05/16 08:50:24;;;;;;;2.88;1.50;;;17.40;90.00;;;;;;6247103;23;20456;-80
2023/05/16 08:52:52;;;;;;;4.03;1.20;;;17.40;89.90;;;;;;6247317;23;19996;-80
2023/05/16 08:55:20;;;;;;;3.70;1.30;;;17.50;89.60;;;;;;6246643;23;20334;-76
2023/05/16 08:57:49;;;;;;;4.78;1.33;;;17.60;89.50;;;;;;6246928;23;20059;-79
2023/05/16 09:00:16;;;;;;;6.53;1.48;;;17.60;89.30;;;;;;6246416;23;20015;-79
2023/05/16 09:02:43;;;;;;;3.35;1.55;;;17.70;89.50;;;;;;6246666;23;20016;-80
2023/05/16 09:05:11;;;;;;;3.25;1.50;;;17.80;89.60;;;;;;6246471;23;20491;-80
2023/05/16 09:07:37;;;;;;;7.55;1.80;;;17.90;89.30;;;;;;6246515;23;20003;-80
2023/05/16 09:10:05;;;;;;;6.82;2.13;;;17.90;89.50;;;;;;6246776;23;20008;-80
2023/05/16 09:12:31;;;;;;;5.82;1.70;;;17.90;89.60;;;;;;6246979;23;20300;-80
2023/05/16 09:14:59;;;;;;;6.90;1.85;;;17.90;90.00;;;;;;6247032;23;20006;-79
2023/05/16 09:17:25;;;;;;;4.03;1.50;;;17.90;90.10;;;;;;6248392;23;20003;-81
2023/05/16 09:19:55;;;;;;;8.05;1.40;;;17.90;90.00;;;;;;6248910;23;20023;-80
2023/05/16 09:22:23;;;;;;;5.80;1.20;;;18.00;90.10;;;;;;6248084;23;20075;-80
2023/05/16 09:24:48;;;;;;;2.25;1.20;;;18.00;89.80;;;;;;6246842;23;20015;-81
2023/05/16 09:27:15;;;;;;;2.88;1.20;;;18.00;90.00;;;;;;6246587;23;20419;-79
2023/05/16 09:29:45;;;;;;;2.97;1.30;;;17.90;90.20;;;;;;6246525;23;20036;-81
2023/05/16 09:32:16;;;;;;;6.45;1.30;;;17.80;90.30;;;;;;6246845;23;20050;-80
2023/05/16 09:34:48;;;;;;;5.53;1.40;;;17.90;90.30;;;;;;6246405;23;20002;-81
2023/05/16 09:37:14;;;;;;;4.15;1.73;;;17.90;90.40;;;;;;6246749;23;20000;-80
2023/05/16 09:39:48;;;;;;;4.03;1.65;;;18.00;90.50;;;;;;6246476;23;20004;-80
2023/05/16 09:42:15;;;;;;;5.55;1.50;;;18.00;90.30;;;;;;6249540;23;19996;-79
2023/05/16 09:44:48;;;;;;;3.63;2.17;;;18.00;90.30;;;;;;6256112;23;20060;-79
2023/05/16 09:47:16;;;;;;;2.83;1.70;;;18.10;90.60;;;;;;6246301;23;20383;-79
2023/05/16 09:49:43;;;;;;;2.50;1.20;;;18.10;90.20;;;;;;6246274;23;20015;-80
2023/05/16 09:52:09;;;;;;;5.25;1.40;;;18.10;90.20;;;;;;6246139;23;19996;-80
2023/05/16 09:54:35;;;;;;;7.63;1.95;;;18.20;90.10;;;;;;6246196;23;20027;-81
2023/05/16 09:57:01;;;;;;;6.75;1.65;;;18.40;90.00;;;;;;6246219;23;20134;-79
2023/05/16 09:59:34;;;;;;;4.22;2.20;;;18.50;89.60;;;;;;6246509;23;20367;-79
2023/05/16 10:02:00;;;;;;;2.85;1.30;;;18.60;89.00;;;;;;6246510;23;20004;-78
2023/05/16 10:04:26;;;;;;;5.47;1.42;;;18.70;88.70;;;;;;6246280;23;20020;-79
2023/05/16 10:06:58;;;;;;;4.10;1.60;;;18.80;88.40;;;;;;6247339;23;20075;-80
2023/05/16 10:09:24;;;;;;;3.35;1.20;;;18.90;87.90;;;;;;6247352;23;20346;-81
2023/05/16 10:11:51;;;;;;;13.45;8.10;;;19.10;87.80;;;;;;6249016;23;19996;-79
2023/05/16 10:14:18;;;;;;;3.85;1.70;;;19.20;87.60;;;;;;6248329;23;20018;-79
2023/05/16 10:16:47;;;;;;;6.60;2.03;;;19.10;87.10;;;;;;6264313;23;20064;-80
2023/05/16 10:19:14;;;;;;;3.67;1.83;;;19.20;87.40;;;;;;6244668;23;20027;-76
2023/05/16 10:21:45;;;;;;;4.32;1.48;;;19.30;87.20;;;;;;6253821;23;20024;-79
2023/05/16 10:24:12;;;;;;;5.05;2.33;;;19.40;87.20;;;;;;6248404;23;20000;-80
2023/05/16 10:26:38;;;;;;;3.03;1.30;;;19.30;87.00;;;;;;6247092;23;20050;-80
2023/05/16 10:29:04;;;;;;;2.50;1.20;;;19.20;87.10;;;;;;6246487;23;20024;-79
2023/05/16 10:31:31;;;;;;;2.45;1.30;;;19.10;86.60;;;;;;6246181;23;20001;-81
2023/05/16 10:33:57;;;;;;;4.57;1.30;;;19.00;86.90;;;;;;6219003;23;20389;-81
2023/05/16 10:36:23;;;;;;;2.60;1.00;;;18.90;87.20;;;;;;6246515;23;20007;-81
2023/05/16 10:38:50;;;;;;;1.52;1.15;;;18.90;87.20;;;;;;6247010;23;20000;-80
2023/05/16 10:41:17;;;;;;;2.80;1.50;;;19.00;87.10;;;;;;6246302;23;20427;-81
2023/05/16 10:43:54;;;;;;;3.90;1.73;;;19.10;87.20;;;;;;6246672;23;20335;-80
2023/05/16 10:46:22;;;;;;;2.22;1.58;;;19.20;87.00;;;;;;6246846;23;20449;-81
2023/05/16 10:48:48;;;;;;;3.10;1.50;;;19.30;86.80;;;;;;6246167;23;20038;-81
2023/05/16 10:51:33;;;;;;;3.83;1.55;;;19.50;86.50;;;;;;6245676;23;20434;-79
2023/05/16 10:54:09;;;;;;;2.83;1.40;;;19.60;86.10;;;;;;6219475;23;20004;-81
2023/05/16 10:56:35;;;;;;;4.20;1.35;;;19.70;85.50;;;;;;6246121;23;19996;-79
2023/05/16 10:59:01;;;;;;;2.05;1.30;;;19.90;84.90;;;;;;6246239;23;20327;-80
2023/05/16 11:01:34;;;;;;;9.38;2.22;;;20.00;83.80;;;;;;6245908;23;20000;-79
2023/05/16 11:04:05;;;;;;;2.63;1.63;;;20.20;83.60;;;;;;6246399;23;20392;-81
2023/05/16 11:06:40;;;;;;;3.78;1.70;;;20.40;83.00;;;;;;6222506;23;20434;-80
2023/05/16 11:09:15;;;;;;;3.72;1.48;;;20.60;82.30;;;;;;6245475;23;20008;-80
2023/05/16 11:11:46;;;;;;;6.57;1.52;;;20.70;81.80;;;;;;6245812;23;19997;-80
2023/05/16 11:14:22;;;;;;;3.97;2.00;;;20.80;81.40;;;;;;6245959;23;20046;-81
2023/05/16 11:17:01;;;;;;;5.55;1.73;;;20.80;81.00;;;;;;6246040;23;20004;-81
2023/05/16 11:19:46;;;;;;;5.03;1.40;;;20.70;81.20;;;;;;6245963;23;20024;-80
2023/05/16 11:22:16;;;;;;;7.03;1.40;;;20.80;81.00;;;;;;6246145;22;20042;-80
2023/05/16 11:25:04;;;;;;;2.03;1.23;;;20.80;80.30;;;;;;6246165;23;20071;-81
2023/05/16 11:27:44;;;;;;;3.72;1.35;;;20.80;80.20;;;;;;6245942;23;20055;-80
2023/05/16 11:30:14;;;;;;;5.43;2.08;;;20.80;79.00;;;;;;6245845;23;20070;-81
2023/05/16 11:32:42;;;;;;;6.10;1.90;;;20.80;79.80;;;;;;6245833;23;19997;-81
2023/05/16 11:35:11;;;;;;;6.57;3.00;;;20.90;78.80;;;;;;6245634;23;20393;-79
2023/05/16 11:37:40;;;;;;;5.30;1.77;;;21.10;78.20;;;;;;6245432;23;20079;-81
2023/05/16 11:40:07;;;;;;;10.95;7.70;;;21.30;77.90;;;;;;6245890;23;20330;-82
2023/05/16 11:42:41;;;;;;;20.42;12.25;;;21.50;77.00;;;;;;6247593;23;20000;-80
2023/05/16 11:45:18;;;;;;;6.05;3.40;;;21.60;76.50;;;;;;6245738;23;20023;-81
2023/05/16 11:47:47;;;;;;;3.35;1.67;;;21.70;76.50;;;;;;6245723;23;20111;-81
2023/05/16 11:50:15;;;;;;;8.35;1.80;;;21.60;76.00;;;;;;6245343;23;20012;-81
2023/05/16 11:52:59;;;;;;;6.07;1.30;;;21.60;76.10;;;;;;6245487;23;20000;-82
2023/05/16 11:55:29;;;;;;;3.72;1.30;;;21.60;76.10;;;;;;6245016;23;20418;-80
2023/05/16 11:57:57;;;;;;;3.55;1.25;;;21.60;75.50;;;;;;6245396;23;20000;-80
2023/05/16 12:00:25;;;;;;;8.95;1.80;;;21.80;75.50;;;;;;6245532;23;20035;-81
2023/05/16 12:02:52;;;;;;;5.10;1.80;;;21.70;75.40;;;;;;6245348;23;20016;-79
2023/05/16 12:05:20;;;;;;;4.07;1.38;;;21.70;75.80;;;;;;6245587;23;20437;-81
2023/05/16 12:07:46;;;;;;;2.28;1.13;;;21.50;75.10;;;;;;6245415;23;20000;-81
2023/05/16 12:10:14;;;;;;;6.90;1.88;;;21.40;75.30;;;;;;6245274;23;20386;-80
2023/05/16 12:12:43;;;;;;;3.70;1.33;;;21.20;75.30;;;;;;6245177;23;20000;-82
2023/05/16 12:15:10;;;;;;;6.90;1.33;;;21.00;75.50;;;;;;6245168;23;20024;-80
2023/05/16 12:17:37;;;;;;;5.07;1.20;;;20.90;76.20;;;;;;6245310;23;20043;-81
2023/05/16 12:20:05;;;;;;;4.55;1.00;;;20.70;76.40;;;;;;6245152;23;19996;-81
2023/05/16 12:22:32;;;;;;;7.18;1.23;;;20.60;76.70;;;;;;6245371;23;20054;-81
2023/05/16 12:25:20;;;;;;;4.50;1.20;;;20.60;76.50;;;;;;6245647;23;20001;-81
2023/05/16 12:27:46;;;;;;;2.72;1.08;;;20.60;77.30;;;;;;6245608;23;19997;-80
2023/05/16 12:30:12;;;;;;;4.75;1.27;;;20.70;76.30;;;;;;6246217;23;20062;-81
2023/05/16 12:32:37;;;;;;;6.47;1.45;;;20.70;76.70;;;;;;6245332;23;20001;-80
2023/05/16 12:35:03;;;;;;;7.40;1.65;;;20.80;76.30;;;;;;6219401;23;20327;-80
2023/05/16 12:37:29;;;;;;;6.50;1.60;;;20.90;76.50;;;;;;6247308;23;19997;-81
2023/05/16 12:40:03;;;;;;;7.28;1.42;;;20.90;76.10;;;;;;6247468;23;20015;-82
2023/05/16 12:42:29;;;;;;;4.40;0.90;;;20.90;76.10;;;;;;6247477;23;20004;-80
2023/05/16 12:44:55;;;;;;;9.75;1.58;;;21.00;75.90;;;;;;6247158;23;19996;-81
2023/05/16 12:47:22;;;;;;;5.75;1.60;;;21.00;75.60;;;;;;6246931;23;20034;-80